createdAt,value
2016-02-25T00:00:02.568Z,0
2016-02-25T00:01:02.586Z,0
2016-02-25T00:02:02.590Z,0
2016-02-25T00:03:02.561Z,0
2016-02-25T00:04:02.563Z,0
2016-02-25T00:05:02.629Z,0
2016-02-25T00:06:02.631Z,0
2016-02-25T00:07:02.587Z,0
2016-02-25T00:08:02.542Z,0
2016-02-25T00:09:02.530Z,0
2016-02-25T00:10:02.548Z,0
2016-02-25T00:11:02.535Z,0
2016-02-25T00:12:02.539Z,0
2016-02-25T00:13:02.541Z,0
2016-02-25T00:14:02.543Z,0
2016-02-25T00:15:02.547Z,0
2016-02-25T00:16:02.533Z,0
2016-02-25T00:17:02.520Z,0
2016-02-25T00:18:02.508Z,0
2016-02-25T00:19:02.510Z,0
2016-02-25T00:20:02.513Z,0
2016-02-25T00:21:02.515Z,0
2016-02-25T00:22:02.534Z,0
2016-02-25T00:23:02.505Z,0
2016-02-25T00:24:02.492Z,0
2016-02-25T00:25:02.495Z,0
2016-02-25T00:26:02.498Z,0
2016-02-25T00:27:02.485Z,0
2016-02-25T00:28:02.504Z,0
2016-02-25T00:29:02.506Z,0
2016-02-25T00:30:02.476Z,0
2016-02-25T00:31:02.479Z,0
2016-02-25T00:32:02.498Z,0
2016-02-25T00:33:02.470Z,0
2016-02-25T00:34:02.487Z,0
2016-02-25T00:35:02.459Z,0
2016-02-25T00:36:02.478Z,0
2016-02-25T00:37:02.464Z,0
2016-02-25T00:38:02.468Z,0
2016-02-25T00:39:02.486Z,0
2016-02-25T00:40:02.457Z,0
2016-02-25T00:41:02.475Z,0
2016-02-25T00:42:02.447Z,0
2016-02-25T00:43:02.434Z,0
2016-02-25T00:44:02.436Z,0
2016-02-25T00:45:02.439Z,0
2016-02-25T00:46:02.427Z,0
2016-02-25T00:47:02.460Z,0
2016-02-25T00:48:02.448Z,0
2016-02-25T00:49:02.450Z,0
2016-02-25T00:50:02.422Z,0
2016-02-25T00:51:02.424Z,0
2016-02-25T00:52:02.411Z,0
2016-02-25T00:53:02.414Z,0
2016-02-25T00:54:02.416Z,0
2016-02-25T00:55:02.419Z,0
2016-02-25T00:56:02.406Z,0
2016-02-25T00:57:02.409Z,0
2016-02-25T00:58:02.396Z,0
2016-02-25T00:59:02.399Z,0
2016-02-25T01:00:02.385Z,0
2016-02-25T01:01:02.404Z,0
2016-02-25T01:02:02.391Z,0
2016-02-25T01:03:02.378Z,0
2016-02-25T01:04:02.381Z,0
2016-02-25T01:05:02.368Z,0
2016-02-25T01:06:02.370Z,0
2016-02-25T01:07:02.373Z,0
2016-02-25T01:08:02.361Z,0
2016-02-25T01:09:02.364Z,0
2016-02-25T01:10:02.366Z,0
2016-02-25T01:11:02.353Z,0
2016-02-25T01:12:02.356Z,0
2016-02-25T01:13:02.342Z,0
2016-02-25T01:14:02.345Z,0
2016-02-25T01:15:02.348Z,0
2016-02-25T01:16:02.350Z,0
2016-02-25T01:17:02.338Z,0
2016-02-25T01:18:02.341Z,0
2016-02-25T01:19:02.327Z,0
2016-02-25T01:20:02.346Z,0
2016-02-25T01:21:02.349Z,0
2016-02-25T01:22:02.336Z,0
2016-02-25T01:23:02.354Z,0
2016-02-25T01:24:02.325Z,0
2016-02-25T01:25:02.297Z,0
2016-02-25T01:26:02.330Z,0
2016-02-25T01:27:02.333Z,0
2016-02-25T01:28:02.290Z,0
2016-02-25T01:29:02.308Z,0
2016-02-25T01:30:02.310Z,0
2016-02-25T01:31:03.094Z,0
2016-02-25T01:32:02.300Z,0
2016-02-25T01:33:02.303Z,0
2016-02-25T01:34:02.290Z,0
2016-02-25T01:35:02.293Z,0
2016-02-25T01:36:02.279Z,0
2016-02-25T01:37:02.267Z,0
2016-02-25T01:38:02.270Z,0
2016-02-25T01:39:02.272Z,0
2016-02-25T01:40:02.259Z,0
2016-02-25T01:41:02.262Z,0
2016-02-25T01:42:02.265Z,0
2016-02-25T01:43:02.236Z,0
2016-02-25T01:44:02.270Z,0
2016-02-25T01:45:02.257Z,0
2016-02-25T01:46:02.260Z,0
2016-02-25T01:47:02.278Z,0
2016-02-25T01:48:02.108Z,0
2016-02-25T01:49:02.236Z,0
2016-02-25T01:50:02.255Z,0
2016-02-25T01:51:02.242Z,0
2016-02-25T01:52:02.230Z,0
2016-02-25T01:53:02.232Z,0
2016-02-25T01:54:02.250Z,0
2016-02-25T01:55:02.221Z,0
2016-02-25T01:56:02.224Z,0
2016-02-25T01:57:02.211Z,0
2016-02-25T01:58:02.229Z,0
2016-02-25T01:59:04.076Z,0
2016-02-25T02:00:02.219Z,0
2016-02-25T02:01:02.034Z,0
2016-02-25T02:02:02.177Z,0
2016-02-25T02:03:02.180Z,0
2016-02-25T02:04:02.183Z,0
2016-02-25T02:05:02.030Z,0
2016-02-25T02:06:02.165Z,0
2016-02-25T02:07:02.713Z,0
2016-02-25T02:08:02.171Z,0
2016-02-25T02:09:02.282Z,0
2016-02-25T02:10:02.769Z,0
2016-02-25T02:11:02.194Z,0
2016-02-25T02:12:02.149Z,0
2016-02-25T02:13:02.152Z,0
2016-02-25T02:14:02.154Z,0
2016-02-25T02:15:02.141Z,0
2016-02-25T02:16:02.113Z,0
2016-02-25T02:17:02.116Z,0
2016-02-25T02:18:02.180Z,0
2016-02-25T02:19:02.105Z,0
2016-02-25T02:20:02.139Z,0
2016-02-25T02:21:02.096Z,0
2016-02-25T02:22:02.130Z,0
2016-02-25T02:23:02.101Z,0
2016-02-25T02:24:02.071Z,0
2016-02-25T02:25:02.090Z,0
2016-02-25T02:26:02.093Z,0
2016-02-25T02:27:02.048Z,0
2016-02-25T02:28:02.067Z,0
2016-02-25T02:29:02.070Z,0
2016-02-25T02:30:02.057Z,0
2016-02-25T02:31:02.043Z,0
2016-02-25T02:32:02.046Z,0
2016-02-25T02:33:02.034Z,0
2016-02-25T02:34:02.037Z,0
2016-02-25T02:35:02.039Z,0
2016-02-25T02:36:02.026Z,0
2016-02-25T02:37:02.029Z,0
2016-02-25T02:38:02.016Z,0
2016-02-25T02:39:02.003Z,0
2016-02-25T02:40:02.006Z,0
2016-02-25T02:41:02.008Z,0
2016-02-25T02:42:02.011Z,0
2016-02-25T02:43:01.998Z,0
2016-02-25T02:44:02.001Z,0
2016-02-25T02:45:02.003Z,0
2016-02-25T02:46:01.990Z,0
2016-02-25T02:47:01.978Z,0
2016-02-25T02:48:01.964Z,0
2016-02-25T02:49:01.967Z,0
2016-02-25T02:50:01.954Z,0
2016-02-25T02:51:01.957Z,0
2016-02-25T02:52:01.944Z,0
2016-02-25T02:53:01.946Z,0
2016-02-25T02:54:01.949Z,0
2016-02-25T02:55:01.937Z,0
2016-02-25T02:56:01.940Z,0
2016-02-25T02:57:01.942Z,0
2016-02-25T02:58:01.929Z,0
2016-02-25T02:59:01.947Z,0
2016-02-25T03:00:01.918Z,0
2016-02-25T03:01:01.920Z,0
2016-02-25T03:02:01.908Z,0
2016-02-25T03:03:01.911Z,0
2016-02-25T03:04:01.898Z,0
2016-02-25T03:05:01.889Z,0
2016-02-25T03:06:01.878Z,0
2016-02-25T03:07:01.880Z,0
2016-02-25T03:08:01.897Z,0
2016-02-25T03:09:01.870Z,0
2016-02-25T03:10:01.872Z,0
2016-02-25T03:11:01.875Z,0
2016-02-25T03:12:01.862Z,0
2016-02-25T03:13:01.864Z,0
2016-02-25T03:14:01.852Z,0
2016-02-25T03:15:01.869Z,0
2016-02-25T03:16:01.873Z,0
2016-02-25T03:17:01.860Z,0
2016-02-25T03:18:01.863Z,0
2016-02-25T03:19:01.849Z,0
2016-02-25T03:20:01.837Z,0
2016-02-25T03:21:01.840Z,0
2016-02-25T03:22:01.826Z,0
2016-02-25T03:23:01.877Z,0
2016-02-25T03:24:01.832Z,0
2016-02-25T03:25:01.804Z,0
2016-02-25T03:26:01.806Z,0
2016-02-25T03:27:01.809Z,0
2016-02-25T03:28:01.654Z,0
2016-02-25T03:29:01.782Z,0
2016-02-25T03:30:01.784Z,0
2016-02-25T03:31:01.820Z,0
2016-02-25T03:32:01.775Z,0
2016-02-25T03:33:01.762Z,0
2016-02-25T03:34:01.781Z,0
2016-02-25T03:35:01.784Z,0
2016-02-25T03:36:01.755Z,0
2016-02-25T03:37:01.742Z,0
2016-02-25T03:38:01.761Z,0
2016-02-25T03:39:01.747Z,0
2016-02-25T03:40:01.765Z,0
2016-02-25T03:41:01.752Z,0
2016-02-25T03:42:01.755Z,0
2016-02-25T03:43:01.711Z,0
2016-02-25T03:44:01.714Z,0
2016-02-25T03:45:01.733Z,0
2016-02-25T03:46:01.735Z,0
2016-02-25T03:47:01.721Z,0
2016-02-25T03:48:01.568Z,0
2016-02-25T03:49:01.696Z,0
2016-02-25T03:50:01.683Z,0
2016-02-25T03:51:01.685Z,0
2016-02-25T03:52:01.704Z,0
2016-02-25T03:53:01.721Z,0
2016-02-25T03:54:01.507Z,0
2016-02-25T03:55:01.665Z,0
2016-02-25T03:56:01.684Z,0
2016-02-25T03:57:01.654Z,0
2016-02-25T03:58:01.657Z,0
2016-02-25T03:59:01.660Z,0
2016-02-25T04:00:01.647Z,0
2016-02-25T04:01:01.665Z,0
2016-02-25T04:02:01.653Z,0
2016-02-25T04:03:01.640Z,0
2016-02-25T04:04:01.611Z,0
2016-02-25T04:05:01.629Z,0
2016-02-25T04:06:01.634Z,0
2016-02-25T04:07:01.607Z,0
2016-02-25T04:08:01.609Z,0
2016-02-25T04:09:01.611Z,0
2016-02-25T04:10:01.615Z,0
2016-02-25T04:11:01.602Z,0
2016-02-25T04:12:01.605Z,0
2016-02-25T04:13:01.591Z,0
2016-02-25T04:14:01.578Z,0
2016-02-25T04:15:01.613Z,0
2016-02-25T04:16:01.584Z,0
2016-02-25T04:17:01.602Z,0
2016-02-25T04:18:01.574Z,0
2016-02-25T04:19:01.577Z,0
2016-02-25T04:20:01.580Z,0
2016-02-25T04:21:01.566Z,0
2016-02-25T04:22:01.568Z,0
2016-02-25T04:23:01.540Z,0
2016-02-25T04:24:01.558Z,0
2016-02-25T04:25:01.529Z,0
2016-02-25T04:26:01.532Z,0
2016-02-25T04:27:01.552Z,0
2016-02-25T04:28:01.538Z,0
2016-02-25T04:29:01.509Z,0
2016-02-25T04:30:01.528Z,0
2016-02-25T04:31:01.515Z,0
2016-02-25T04:32:01.501Z,0
2016-02-25T04:33:01.520Z,0
2016-02-25T04:34:01.507Z,0
2016-02-25T04:35:01.494Z,0
2016-02-25T04:36:01.481Z,0
2016-02-25T04:37:01.484Z,0
2016-02-25T04:38:01.487Z,0
2016-02-25T04:39:01.489Z,0
2016-02-25T04:40:01.461Z,0
2016-02-25T04:41:01.448Z,0
2016-02-25T04:42:01.467Z,0
2016-02-25T04:43:01.484Z,0
2016-02-25T04:44:01.440Z,0
2016-02-25T04:45:01.475Z,0
2016-02-25T04:46:01.446Z,0
2016-02-25T04:47:01.449Z,0
2016-02-25T04:48:01.436Z,0
2016-02-25T04:49:01.485Z,0
2016-02-25T04:50:01.410Z,0
2016-02-25T04:51:01.413Z,0
2016-02-25T04:52:01.400Z,0
2016-02-25T04:53:01.402Z,0
2016-02-25T04:54:01.404Z,0
2016-02-25T04:55:01.391Z,0
2016-02-25T04:56:01.394Z,0
2016-02-25T04:57:01.396Z,0
2016-02-25T04:58:01.368Z,0
2016-02-25T04:59:01.418Z,0
2016-02-25T05:00:01.374Z,0
2016-02-25T05:01:01.377Z,0
2016-02-25T05:02:01.207Z,0
2016-02-25T05:03:01.351Z,0
2016-02-25T05:04:01.354Z,0
2016-02-25T05:05:01.387Z,0
2016-02-25T05:06:01.343Z,0
2016-02-25T05:07:01.331Z,0
2016-02-25T05:08:01.349Z,0
2016-02-25T05:09:01.320Z,0
2016-02-25T05:10:01.307Z,0
2016-02-25T05:11:01.326Z,0
2016-02-25T05:12:01.312Z,0
2016-02-25T05:13:01.300Z,0
2016-02-25T05:14:01.302Z,0
2016-02-25T05:15:01.321Z,0
2016-02-25T05:16:01.308Z,0
2016-02-25T05:17:03.061Z,0
2016-02-25T05:18:01.297Z,0
2016-02-25T05:19:01.285Z,0
2016-02-25T05:20:01.272Z,0
2016-02-25T05:21:01.306Z,0
2016-02-25T05:22:01.261Z,0
2016-02-25T05:23:01.249Z,0
2016-02-25T05:24:01.267Z,0
2016-02-25T05:25:01.238Z,0
2016-02-25T05:26:01.257Z,0
2016-02-25T05:27:01.244Z,0
2016-02-25T05:28:01.262Z,0
2016-02-25T05:29:01.249Z,0
2016-02-25T05:30:01.252Z,0
2016-02-25T05:31:01.239Z,0
2016-02-25T05:32:01.226Z,0
2016-02-25T05:33:01.197Z,0
2016-02-25T05:34:01.216Z,0
2016-02-25T05:35:01.203Z,0
2016-02-25T05:36:01.221Z,0
2016-02-25T05:37:01.177Z,0
2016-02-25T05:38:01.179Z,0
2016-02-25T05:39:01.182Z,0
2016-02-25T05:40:01.201Z,0
2016-02-25T05:41:01.188Z,0
2016-02-25T05:42:01.175Z,0
2016-02-25T05:43:01.161Z,0
2016-02-25T05:44:01.164Z,0
2016-02-25T05:45:01.167Z,0
2016-02-25T05:46:01.139Z,0
2016-02-25T05:47:01.141Z,0
2016-02-25T05:48:01.144Z,0
2016-02-25T05:49:01.130Z,0
2016-02-25T05:50:01.118Z,4
2016-02-25T05:51:01.121Z,4
2016-02-25T05:52:01.139Z,4
2016-02-25T05:53:01.141Z,4
2016-02-25T05:54:01.114Z,0
2016-02-25T05:55:01.099Z,4
2016-02-25T05:56:01.103Z,4
2016-02-25T05:57:01.105Z,4
2016-02-25T05:58:01.077Z,4
2016-02-25T05:59:01.096Z,8
2016-02-25T06:00:01.083Z,4
2016-02-25T06:01:01.085Z,8
2016-02-25T06:02:01.071Z,8
2016-02-25T06:03:01.090Z,8
2016-02-25T06:04:01.077Z,12
2016-02-25T06:05:01.065Z,16
2016-02-25T06:06:01.052Z,16
2016-02-25T06:07:01.039Z,16
2016-02-25T06:08:01.057Z,20
2016-02-25T06:09:01.012Z,24
2016-02-25T06:10:01.048Z,28
2016-02-25T06:11:00.878Z,28
2016-02-25T06:12:01.053Z,36
2016-02-25T06:13:01.039Z,36
2016-02-25T06:14:01.011Z,44
2016-02-25T06:15:00.998Z,48
2016-02-25T06:16:01.000Z,56
2016-02-25T06:17:01.003Z,60
2016-02-25T06:18:01.022Z,64
2016-02-25T06:19:01.025Z,80
2016-02-25T06:20:00.995Z,88
2016-02-25T06:21:01.014Z,100
2016-02-25T06:22:00.986Z,104
2016-02-25T06:23:00.957Z,112
2016-02-25T06:24:00.991Z,124
2016-02-25T06:25:00.978Z,128
2016-02-25T06:26:00.965Z,128
2016-02-25T06:27:00.952Z,128
2016-02-25T06:28:00.939Z,132
2016-02-25T06:29:00.942Z,132
2016-02-25T06:30:00.976Z,132
2016-02-25T06:31:00.916Z,124
2016-02-25T06:32:00.934Z,132
2016-02-25T06:33:00.921Z,144
2016-02-25T06:34:00.924Z,144
2016-02-25T06:35:00.910Z,156
2016-02-25T06:36:00.913Z,164
2016-02-25T06:37:00.885Z,168
2016-02-25T06:38:00.903Z,160
2016-02-25T06:39:00.953Z,160
2016-02-25T06:40:00.893Z,160
2016-02-25T06:41:00.865Z,168
2016-02-25T06:42:00.883Z,172
2016-02-25T06:43:00.870Z,176
2016-02-25T06:44:00.872Z,188
2016-02-25T06:45:00.860Z,200
2016-02-25T06:46:00.862Z,204
2016-02-25T06:47:00.850Z,200
2016-02-25T06:48:00.868Z,192
2016-02-25T06:49:00.870Z,200
2016-02-25T06:50:00.873Z,208
2016-02-25T06:51:00.844Z,212
2016-02-25T06:52:00.832Z,212
2016-02-25T06:53:00.850Z,224
2016-02-25T06:54:00.837Z,236
2016-02-25T06:55:00.825Z,248
2016-02-25T06:56:00.857Z,256
2016-02-25T06:57:00.814Z,280
2016-02-25T06:58:00.817Z,300
2016-02-25T06:59:00.814Z,312
2016-02-25T07:00:00.787Z,308
2016-02-25T07:01:00.758Z,304
2016-02-25T07:02:00.761Z,280
2016-02-25T07:03:00.717Z,260
2016-02-25T07:04:00.694Z,260
2016-02-25T07:05:00.677Z,268
2016-02-25T07:06:00.634Z,284
2016-02-25T07:07:00.662Z,296
2016-02-25T07:08:00.660Z,308
2016-02-25T07:09:00.674Z,332
2016-02-25T07:10:00.659Z,356
2016-02-25T07:11:00.645Z,388
2016-02-25T07:12:00.614Z,424
2016-02-25T07:13:00.615Z,468
2016-02-25T07:14:00.632Z,508
2016-02-25T07:15:00.618Z,560
2016-02-25T07:16:00.619Z,596
2016-02-25T07:17:00.607Z,660
2016-02-25T07:18:00.623Z,708
2016-02-25T07:19:00.439Z,740
2016-02-25T07:20:00.644Z,796
2016-02-25T07:21:00.585Z,880
2016-02-25T07:22:00.572Z,912
2016-02-25T07:23:00.575Z,940
2016-02-25T07:24:00.578Z,964
2016-02-25T07:25:00.563Z,988
2016-02-25T07:26:00.566Z,988
2016-02-25T07:27:00.554Z,1024
2016-02-25T07:28:00.557Z,1136
2016-02-25T07:29:00.559Z,1228
2016-02-25T07:30:00.530Z,1304
2016-02-25T07:31:00.580Z,1400
2016-02-25T07:32:00.536Z,1576
2016-02-25T07:33:00.508Z,1672
2016-02-25T07:34:00.526Z,1628
2016-02-25T07:35:00.513Z,1564
2016-02-25T07:36:00.515Z,1520
2016-02-25T07:37:00.518Z,1468
2016-02-25T07:38:00.537Z,1444
2016-02-25T07:39:00.352Z,1432
2016-02-25T07:40:00.526Z,1428
2016-02-25T07:41:00.498Z,1452
2016-02-25T07:42:00.484Z,1500
2016-02-25T07:43:00.487Z,1492
2016-02-25T07:44:00.506Z,1432
2016-02-25T07:45:00.493Z,1368
2016-02-25T07:46:00.495Z,1304
2016-02-25T07:47:00.467Z,1300
2016-02-25T07:48:00.470Z,1324
2016-02-25T07:49:00.488Z,1388
2016-02-25T07:50:00.459Z,1448
2016-02-25T07:51:00.461Z,1456
2016-02-25T07:52:00.450Z,1408
2016-02-25T07:53:00.467Z,1344
2016-02-25T07:54:00.470Z,1212
2016-02-25T07:55:00.441Z,1120
2016-02-25T07:56:00.444Z,1084
2016-02-25T07:57:00.431Z,1104
2016-02-25T07:58:00.449Z,1156
2016-02-25T07:59:00.422Z,1200
2016-02-25T08:00:00.408Z,1256
2016-02-25T08:01:00.458Z,1288
2016-02-25T08:02:00.429Z,1300
2016-02-25T08:03:00.416Z,1288
2016-02-25T08:04:00.419Z,1308
2016-02-25T08:05:00.422Z,1304
2016-02-25T08:06:00.393Z,1252
2016-02-25T08:07:00.380Z,1208
2016-02-25T08:08:00.429Z,1184
2016-02-25T08:09:00.401Z,1200
2016-02-25T08:10:00.373Z,1276
2016-02-25T08:11:00.376Z,1364
2016-02-25T08:12:00.378Z,1420
2016-02-25T08:13:00.365Z,1488
2016-02-25T08:14:00.399Z,1516
2016-02-25T08:15:00.354Z,1508
2016-02-25T08:16:00.357Z,1536
2016-02-25T08:17:00.391Z,1584
2016-02-25T08:18:00.347Z,1664
2016-02-25T08:19:00.381Z,1772
2016-02-25T08:20:00.336Z,1908
2016-02-25T08:21:00.340Z,2092
2016-02-25T08:22:00.358Z,2292
2016-02-25T08:23:00.314Z,2396
2016-02-25T08:24:00.332Z,2544
2016-02-25T08:25:00.319Z,2840
2016-02-25T08:26:00.338Z,3160
2016-02-25T08:27:00.309Z,3464
2016-02-25T08:28:00.328Z,3692
2016-02-25T08:29:00.314Z,3728
2016-02-25T08:30:00.302Z,3672
2016-02-25T08:31:00.319Z,3640
2016-02-25T08:32:00.291Z,3620
2016-02-25T08:33:00.277Z,3840
2016-02-25T08:34:00.312Z,4124
2016-02-25T08:35:00.268Z,4232
2016-02-25T08:36:00.271Z,4212
2016-02-25T08:37:00.289Z,4220
2016-02-25T08:38:00.261Z,4224
2016-02-25T08:39:00.279Z,4200
2016-02-25T08:39:59.954Z,4228
2016-02-25T08:41:00.254Z,4240
2016-02-25T08:42:00.287Z,4076
2016-02-25T08:43:00.289Z,3964
2016-02-25T08:44:00.262Z,4044
2016-02-25T08:45:00.232Z,4188
2016-02-25T08:46:00.235Z,4220
2016-02-25T08:47:00.254Z,4148
2016-02-25T08:48:00.225Z,4220
2016-02-25T08:49:00.243Z,4420
2016-02-25T08:50:00.230Z,4480
2016-02-25T08:51:00.217Z,4484
2016-02-25T08:52:00.236Z,4528
2016-02-25T08:53:00.222Z,4692
2016-02-25T08:54:00.241Z,4892
2016-02-25T08:55:00.212Z,5020
2016-02-25T08:56:00.231Z,5064
2016-02-25T08:57:00.218Z,5044
2016-02-25T08:58:00.220Z,4984
2016-02-25T08:59:00.223Z,4932
2016-02-25T09:00:00.194Z,4860
2016-02-25T09:01:00.197Z,4816
2016-02-25T09:02:00.200Z,4876
2016-02-25T09:03:00.187Z,4912
2016-02-25T09:04:00.190Z,4960
2016-02-25T09:05:00.208Z,5068
2016-02-25T09:06:00.180Z,5232
2016-02-25T09:07:00.183Z,5320
2016-02-25T09:08:00.185Z,5264
2016-02-25T09:09:00.187Z,5212
2016-02-25T09:10:00.174Z,5152
2016-02-25T09:11:00.193Z,5128
2016-02-25T09:12:00.180Z,5000
2016-02-25T09:13:00.167Z,4772
2016-02-25T09:14:00.185Z,4540
2016-02-25T09:15:00.172Z,4516
2016-02-25T09:16:00.159Z,4672
2016-02-25T09:17:00.146Z,4780
2016-02-25T09:18:00.181Z,4688
2016-02-25T09:19:00.184Z,4616
2016-02-25T09:20:00.155Z,4576
2016-02-25T09:21:00.189Z,4412
2016-02-25T09:22:00.145Z,4220
2016-02-25T09:23:00.148Z,4152
2016-02-25T09:24:00.134Z,4148
2016-02-25T09:25:00.137Z,4096
2016-02-25T09:26:00.140Z,4024
2016-02-25T09:27:00.142Z,3924
2016-02-25T09:28:00.130Z,3828
2016-02-25T09:29:00.148Z,3696
2016-02-25T09:30:00.136Z,3408
2016-02-25T09:31:00.153Z,3160
2016-02-25T09:32:00.109Z,2940
2016-02-25T09:33:00.128Z,2860
2016-02-25T09:34:00.130Z,2796
2016-02-25T09:35:00.118Z,2712
2016-02-25T09:36:00.120Z,2564
2016-02-25T09:37:00.123Z,2388
2016-02-25T09:38:00.125Z,2208
2016-02-25T09:39:00.097Z,2068
2016-02-25T09:39:59.943Z,2032
2016-02-25T09:41:00.102Z,2080
2016-02-25T09:42:00.105Z,2260
2016-02-25T09:43:00.108Z,2328
2016-02-25T09:44:00.094Z,2112
2016-02-25T09:45:00.082Z,1876
2016-02-25T09:46:00.116Z,1768
2016-02-25T09:47:00.088Z,1684
2016-02-25T09:48:00.090Z,1620
2016-02-25T09:49:00.093Z,1608
2016-02-25T09:50:00.096Z,1688
2016-02-25T09:51:00.129Z,1860
2016-02-25T09:52:00.101Z,2052
2016-02-25T09:53:00.070Z,2092
2016-02-25T09:54:00.091Z,2108
2016-02-25T09:55:00.060Z,2144
2016-02-25T09:56:00.078Z,2300
2016-02-25T09:57:00.064Z,2520
2016-02-25T09:58:00.052Z,2764
2016-02-25T09:59:00.054Z,2956
2016-02-25T10:00:00.042Z,3128
2016-02-25T10:01:00.059Z,3308
2016-02-25T10:02:00.062Z,3488
2016-02-25T10:03:00.050Z,3620
2016-02-25T10:04:00.037Z,3656
2016-02-25T10:05:00.055Z,3632
2016-02-25T10:06:00.042Z,3576
2016-02-25T10:07:00.045Z,3752
2016-02-25T10:08:00.047Z,4284
2016-02-25T10:09:00.019Z,4648
2016-02-25T10:10:00.037Z,4536
2016-02-25T10:11:00.024Z,4248
2016-02-25T10:12:00.011Z,3864
2016-02-25T10:12:59.999Z,3652
2016-02-25T10:14:00.016Z,3360
2016-02-25T10:14:59.863Z,2948
2016-02-25T10:16:00.007Z,2720
2016-02-25T10:16:59.993Z,2772
2016-02-25T10:17:59.996Z,2924
2016-02-25T10:19:00.015Z,3124
2016-02-25T10:19:59.971Z,3304
2016-02-25T10:21:00.004Z,3480
2016-02-25T10:21:59.991Z,3724
2016-02-25T10:22:59.979Z,3964
2016-02-25T10:23:59.981Z,4124
2016-02-25T10:24:59.984Z,4372
2016-02-25T10:25:59.971Z,4876
2016-02-25T10:26:59.989Z,5376
2016-02-25T10:27:59.960Z,5604
2016-02-25T10:28:59.979Z,5684
2016-02-25T10:29:59.950Z,5956
2016-02-25T10:30:59.984Z,6268
2016-02-25T10:31:59.971Z,6368
2016-02-25T10:32:59.990Z,6148
2016-02-25T10:33:59.976Z,5912
2016-02-25T10:34:59.948Z,5780
2016-02-25T10:35:59.951Z,5824
2016-02-25T10:36:59.953Z,5984
2016-02-25T10:37:59.784Z,5972
2016-02-25T10:38:59.802Z,5872
2016-02-25T10:39:59.946Z,5788
2016-02-25T10:40:59.980Z,5688
2016-02-25T10:41:59.936Z,5392
2016-02-25T10:42:59.939Z,5004
2016-02-25T10:43:59.942Z,4876
2016-02-25T10:44:59.944Z,4988
2016-02-25T10:45:59.759Z,5344
2016-02-25T10:46:59.950Z,5728
2016-02-25T10:47:59.999Z,5912
2016-02-25T10:48:59.908Z,5940
2016-02-25T10:49:59.910Z,5840
2016-02-25T10:50:59.913Z,5608
2016-02-25T10:51:59.900Z,5452
2016-02-25T10:53:00.044Z,5528
2016-02-25T10:53:59.905Z,5696
2016-02-25T10:54:59.908Z,6004
2016-02-25T10:55:59.910Z,6356
2016-02-25T10:56:59.913Z,6548
2016-02-25T10:57:59.916Z,6632
2016-02-25T10:58:59.903Z,6696
2016-02-25T10:59:59.797Z,6704
2016-02-25T11:00:59.893Z,6572
2016-02-25T11:01:59.896Z,6444
2016-02-25T11:02:59.915Z,6408
2016-02-25T11:03:59.901Z,6416
2016-02-25T11:04:59.733Z,6452
2016-02-25T11:05:59.907Z,6604
2016-02-25T11:06:59.895Z,6940
2016-02-25T11:07:59.898Z,7484
2016-02-25T11:08:59.868Z,8064
2016-02-25T11:09:59.887Z,8208
2016-02-25T11:10:59.890Z,8016
2016-02-25T11:11:59.877Z,7720
2016-02-25T11:12:59.879Z,7568
2016-02-25T11:13:59.898Z,7336
2016-02-25T11:14:59.885Z,6960
2016-02-25T11:15:59.887Z,6760
2016-02-25T11:16:59.875Z,6764
2016-02-25T11:17:59.878Z,6820
2016-02-25T11:19:00.161Z,6804
2016-02-25T11:19:59.867Z,6720
2016-02-25T11:20:59.886Z,6732
2016-02-25T11:21:59.857Z,6740
2016-02-25T11:22:59.859Z,6484
2016-02-25T11:23:59.910Z,6100
2016-02-25T11:24:59.850Z,5832
2016-02-25T11:25:59.852Z,5744
2016-02-25T11:26:59.856Z,5364
2016-02-25T11:27:59.858Z,5000
2016-02-25T11:28:59.892Z,4972
2016-02-25T11:29:59.863Z,5048
2016-02-25T11:30:59.850Z,5140
2016-02-25T11:31:59.868Z,5228
2016-02-25T11:32:59.855Z,5328
2016-02-25T11:33:59.858Z,5464
2016-02-25T11:34:59.846Z,5636
2016-02-25T11:35:59.848Z,5828
2016-02-25T11:36:59.867Z,6048
2016-02-25T11:37:59.869Z,6236
2016-02-25T11:38:59.841Z,6404
2016-02-25T11:39:59.844Z,6576
2016-02-25T11:40:59.830Z,6772
2016-02-25T11:41:59.849Z,7024
2016-02-25T11:42:59.852Z,7148
2016-02-25T11:43:59.838Z,7220
2016-02-25T11:44:59.826Z,7312
2016-02-25T11:45:59.829Z,7476
2016-02-25T11:46:59.846Z,7624
2016-02-25T11:47:59.849Z,7772
2016-02-25T11:48:59.836Z,7784
2016-02-25T11:49:59.823Z,7648
2016-02-25T11:50:59.826Z,7468
2016-02-25T11:51:59.813Z,7232
2016-02-25T11:52:59.831Z,7004
2016-02-25T11:53:59.803Z,6896
2016-02-25T11:54:59.805Z,6772
2016-02-25T11:55:59.808Z,6632
2016-02-25T11:56:59.858Z,6508
2016-02-25T11:57:59.814Z,6396
2016-02-25T11:58:59.832Z,6380
2016-02-25T11:59:59.803Z,6540
2016-02-25T12:00:59.822Z,6648
2016-02-25T12:01:59.809Z,6656
2016-02-25T12:02:59.842Z,6604
2016-02-25T12:03:59.814Z,6556
2016-02-25T12:04:59.832Z,6500
2016-02-25T12:05:59.805Z,6660
2016-02-25T12:06:59.807Z,6680
2016-02-25T12:07:59.810Z,6732
2016-02-25T12:08:59.797Z,6732
2016-02-25T12:09:59.799Z,6612
2016-02-25T12:10:59.818Z,6664
2016-02-25T12:11:59.805Z,6752
2016-02-25T12:12:59.808Z,6936
2016-02-25T12:13:59.810Z,7100
2016-02-25T12:14:59.797Z,7096
2016-02-25T12:15:59.800Z,7212
2016-02-25T12:16:59.802Z,7424
2016-02-25T12:17:59.837Z,7588
2016-02-25T12:18:59.808Z,7748
2016-02-25T12:19:59.810Z,7664
2016-02-25T12:20:59.813Z,7708
2016-02-25T12:21:59.831Z,7908
2016-02-25T12:22:59.787Z,7908
2016-02-25T12:23:59.790Z,7844
2016-02-25T12:24:59.792Z,7704
2016-02-25T12:25:59.795Z,7360
2016-02-25T12:26:59.781Z,7104
2016-02-25T12:27:59.784Z,6924
2016-02-25T12:28:59.787Z,6800
2016-02-25T12:29:59.790Z,6708
2016-02-25T12:30:59.793Z,6700
2016-02-25T12:31:59.781Z,6676
2016-02-25T12:32:59.814Z,6592
2016-02-25T12:33:59.817Z,6648
2016-02-25T12:34:59.835Z,6648
2016-02-25T12:35:59.791Z,6636
2016-02-25T12:36:59.809Z,6548
2016-02-25T12:37:59.797Z,6540
2016-02-25T12:38:59.800Z,6668
2016-02-25T12:39:59.802Z,6772
2016-02-25T12:40:59.789Z,6852
2016-02-25T12:41:59.791Z,7052
2016-02-25T12:42:59.794Z,7232
2016-02-25T12:43:59.844Z,7348
2016-02-25T12:44:59.799Z,7460
2016-02-25T12:45:59.771Z,7808
2016-02-25T12:46:59.789Z,8092
2016-02-25T12:47:59.807Z,8124
2016-02-25T12:48:59.779Z,8124
2016-02-25T12:49:59.782Z,7552
2016-02-25T12:50:59.816Z,7012
2016-02-25T12:51:59.803Z,6876
2016-02-25T12:52:59.774Z,6356
2016-02-25T12:53:59.809Z,6160
2016-02-25T12:54:59.671Z,6004
2016-02-25T12:55:59.767Z,5960
2016-02-25T12:56:59.785Z,5680
2016-02-25T12:57:59.773Z,5728
2016-02-25T12:58:59.775Z,5928
2016-02-25T12:59:59.793Z,6192
2016-02-25T13:00:59.781Z,6336
2016-02-25T13:01:59.767Z,6268
2016-02-25T13:02:59.786Z,6700
2016-02-25T13:03:59.789Z,6400
2016-02-25T13:04:59.791Z,6172
2016-02-25T13:05:59.778Z,6000
2016-02-25T13:06:59.797Z,5932
2016-02-25T13:07:59.830Z,5948
2016-02-25T13:08:59.770Z,5316
2016-02-25T13:09:59.805Z,5088
2016-02-25T13:10:59.760Z,5168
2016-02-25T13:11:59.764Z,5364
2016-02-25T13:12:59.828Z,5172
2016-02-25T13:13:59.815Z,4700
2016-02-25T13:14:59.787Z,4296
2016-02-25T13:15:59.618Z,3860
2016-02-25T13:16:59.777Z,3744
2016-02-25T13:17:59.780Z,3744
2016-02-25T13:18:59.782Z,3736
2016-02-25T13:19:59.769Z,3680
2016-02-25T13:20:59.788Z,3600
2016-02-25T13:21:59.774Z,3504
2016-02-25T13:22:59.793Z,3392
2016-02-25T13:23:59.779Z,3280
2016-02-25T13:24:59.798Z,3164
2016-02-25T13:25:59.770Z,3136
2016-02-25T13:26:59.772Z,3000
2016-02-25T13:27:59.760Z,2896
2016-02-25T13:28:59.793Z,2848
2016-02-25T13:29:59.764Z,2812
2016-02-25T13:30:59.799Z,2780
2016-02-25T13:31:59.786Z,2772
2016-02-25T13:32:59.788Z,2772
2016-02-25T13:33:59.776Z,2776
2016-02-25T13:34:59.762Z,2784
2016-02-25T13:35:59.750Z,2804
2016-02-25T13:36:59.815Z,2840
2016-02-25T13:37:59.770Z,2884
2016-02-25T13:38:59.805Z,2928
2016-02-25T13:39:59.900Z,2980
2016-02-25T13:40:59.778Z,3048
2016-02-25T13:41:59.797Z,3116
2016-02-25T13:42:59.628Z,3204
2016-02-25T13:43:59.771Z,3288
2016-02-25T13:44:59.758Z,3368
2016-02-25T13:45:59.808Z,3444
2016-02-25T13:46:59.747Z,3528
2016-02-25T13:47:59.766Z,3628
2016-02-25T13:48:59.738Z,3748
2016-02-25T13:49:59.755Z,3888
2016-02-25T13:50:59.758Z,4020
2016-02-25T13:51:59.777Z,4172
2016-02-25T13:52:59.749Z,4304
2016-02-25T13:53:59.766Z,4424
2016-02-25T13:54:59.769Z,4512
2016-02-25T13:55:59.757Z,4572
2016-02-25T13:56:59.759Z,4588
2016-02-25T13:57:59.824Z,4604